首页
METAR-TAF:

METAR-TAF

机场 :

皮斯里弗, 艾伯塔, 加拿大

纬度: 56-14N, 经度: 117-26W, 海拔: 571米

当前天气观测

该预报发布于23分钟前的10:00 UTC
风速7节,风向西南
温度 -4°C
湿度 93%
气压 1004 hPa
能見度: 9.7公里
阴天层高于14000英尺
轻雾

METAR: CYPE 151000Z 23007KT 6SM BR OVC140 M04/M05 A2965 RMK AC8 SLP077

时间: 03:23 (10:23 UTC)

预报

该预报发布于3小时和41分钟前的06:42 UTC
预报有效从15日的 07点(UTC)到 15日的 19点(UTC)
风速3节,风向多变
能見度: 3.2公里
阴天层高于500英尺
轻雾
短暂存在
从 15日的 07点(UTC)到 15日的 14点(UTC)
能見度: 10公里
散云层高于500英尺
阴天层高于6000英尺
几率 30%
从 15日的 07点(UTC)到 15日的 14点(UTC)
能見度: 0.8公里
层高于200英尺
冻雾
从 15日的 1400点(UTC)
风速10节,风向西南
能見度: 10公里
阴天层高于4000英尺
短暂存在
从 15日的 14点(UTC)到 15日的 19点(UTC)
能見度: 6.4公里
散云层高于600英尺
阴天层高于1200英尺
(小) 冻, 雨, 轻雾

TAF: CYPE 150642Z 1507/1519 VRB03KT 2SM BR OVC005 TEMPO 1507/1514 P6SM NSW SCT005 OVC060 PROB30 1507/1514 1/2SM FZFG VV002 FM151400 23010KT P6SM OVC040 TEMPO 1514/1519 4SM -FZRA BR SCT006 OVC012 RMK NXT FCST BY 151300Z

超过4000个机场的气象观测和天气预报(METAR&TAF报告)。

可查询的气象台以黄色和红色小点在地图上表示。

将鼠标移到小点上方,可查看气象台名称。

然后点击查看天气观测和预报。

如需切换地图:点击带黑十字的绿色按钮放大地图;点击带横线的绿色按钮缩小地图;或者点击绿色箭头查看邻近地区的地图。


METAR-TAF: